Latest Weather Observations for Leigh Creek

IDS60801

Issued at 11:35 pm CST Thursday 21 August 2014 (issued every 30 minutes, with the page automatically refreshed every 10 minutes)

About weather observations | Map of weather stations | Latest weather observations for SA | Other Formats
Station Details ID: 017110 Name: LEIGH CREEK AIRPORT Lat: -30.60 Lon: 138.42 Height: 258.8 m
Data from the previous 72 hours. | See also: Recent months at Leigh Creek
Date/Time
CST
Temp
°C
App
Temp
°C
Dew
Point
Rel
Hum
%
Delta-T
°C
Wind Press
QNH
hPa
Press
MSL
hPa
Rain
since 9 am
mm
Dir
 
Spd
km/h
Gust
km/h
Spd
kts
Gust
kts
21/11:30pm 11.3 8.3 2.3 54 3.9 SSE 7 9 4 5 1024.9 1024.9 0.0
21/11:00pm 11.2 8.5 2.5 55 3.8 S 6 7 3 4 1025.0 1025.0 0.0
21/10:30pm 11.0 8.0 2.3 55 3.8 SE 7 11 4 6 1025.0 1025.0 0.0
21/10:00pm 11.4 8.1 2.4 54 3.9 E 9 13 5 7 1025.0 1025.0 0.0
21/09:30pm 11.2 8.2 2.0 53 4.0 E 7 9 4 5 1024.9 1024.9 0.0
21/09:00pm 12.5 7.7 2.4 50 4.4 E 17 19 9 10 1024.4 1024.5 0.0
21/08:30pm 13.2 8.9 3.3 51 4.5 E 15 19 8 10 1024.3 1024.4 0.0
21/08:00pm 13.7 9.4 3.2 49 4.8 E 15 17 8 9 1024.0 1024.1 0.0
21/07:30pm 14.8 9.7 3.3 46 5.3 E 19 20 10 11 1023.6 1023.6 0.0
21/07:00pm 16.2 11.0 3.6 43 5.9 E 20 24 11 13 1023.3 1023.3 0.0
21/06:30pm 16.9 11.6 2.9 39 6.5 E 20 26 11 14 1022.9 1022.9 0.0
21/06:00pm 17.9 13.3 1.8 34 7.3 ENE 15 20 8 11 1022.6 1022.6 0.0
21/05:30pm 18.6 14.0 1.6 32 7.7 ENE 15 17 8 9 1022.2 1022.2 0.0
21/05:00pm 19.1 14.6 2.0 32 7.9 NNE 15 19 8 10 1022.0 1022.0 0.0
21/04:30pm 19.3 15.0 1.3 30 8.2 N 13 20 7 11 1021.7 1021.7 0.0
21/04:00pm 19.5 15.6 1.0 29 8.4 NE 11 17 6 9 1021.6 1021.6 0.0
21/03:30pm 19.7 15.0 0.7 28 8.6 NNE 15 24 8 13 1021.5 1021.5 0.0
21/03:00pm 20.2 16.6 0.6 27 8.9 N 9 24 5 13 1021.3 1021.3 0.0
21/02:30pm 20.3 16.0 0.7 27 8.9 N 13 22 7 12 1021.6 1021.6 0.0
21/02:00pm 21.0 16.6 0.2 25 9.4 N 13 24 7 13 1021.8 1021.8 0.0
21/01:30pm 20.2 16.4 1.6 29 8.6 N 11 17 6 9 1022.0 1022.0 0.0
21/01:00pm 19.5 16.5 1.9 31 8.2 N 7 15 4 8 1022.3 1022.3 0.0
21/12:30pm 18.7 15.1 2.9 35 7.4 NNE 11 15 6 8 1023.0 1023.0 0.0
21/12:00pm 19.4 14.3 3.2 34 7.7 N 19 20 10 11 1023.4 1023.4 0.0
21/11:30am 19.3 15.3 2.6 33 7.8 N 13 22 7 12 1023.7 1023.7 0.0
21/11:00am 19.4 14.2 2.7 33 7.9 N 19 28 10 15 1024.0 1024.1 0.0
21/10:30am 19.0 14.0 1.5 31 8.0 NE 17 28 9 15 1024.3 1024.4 0.0
21/10:00am 18.5 14.5 4.7 40 6.7 ENE 15 24 8 13 1024.3 1024.4 0.0
21/09:30am 17.5 12.7 5.4 45 5.9 E 20 26 11 14 1024.5 1024.6 0.0
21/09:00am 16.0 11.4 6.4 53 4.7 E 20 28 11 15 1024.7 1024.7 0.0
21/08:30am 14.7 10.6 6.0 56 4.2 E 17 20 9 11 1024.7 1024.7 0.0
21/08:00am 12.4 8.3 6.0 65 3.1 E 17 20 9 11 1024.5 1024.6 0.0
21/07:30am 10.8 7.3 5.6 70 2.4 ESE 13 17 7 9 1024.3 1024.4 0.0
21/07:00am 10.2 7.5 5.6 73 2.1 SE 9 13 5 7 1024.2 1024.3 0.0
21/06:30am 10.2 6.7 5.6 73 2.1 E 13 17 7 9 1024.0 1024.1 0.0
21/06:00am 10.1 5.5 5.7 74 2.0 E 19 22 10 12 1023.8 1023.8 0.0
21/05:30am 9.7 5.5 5.5 75 1.9 E 17 24 9 13 1023.5 1023.5 0.0
21/05:00am 9.7 5.5 5.5 75 1.9 E 17 22 9 12 1023.4 1023.4 0.0
21/04:30am 10.0 5.4 5.6 74 2.0 E 19 26 10 14 1023.3 1023.3 0.0
21/04:00am 10.1 5.3 5.5 73 2.1 E 20 24 11 13 1023.3 1023.3 0.0
21/03:30am 10.6 5.8 5.6 71 2.3 ESE 20 24 11 13 1023.3 1023.3 0.0
21/03:00am 10.2 5.8 5.0 70 2.4 ESE 17 20 9 11 1023.4 1023.4 0.0
21/02:30am 9.8 5.3 4.0 67 2.6 ESE 17 19 9 10 1023.6 1023.6 0.0
21/02:00am 9.8 5.6 3.8 66 2.7 ESE 15 20 8 11 1023.8 1023.8 0.0
21/01:30am 9.0 5.4 2.8 65 2.7 SE 11 15 6 8 1023.9 1024.0 0.0
21/01:00am 7.9 4.9 2.0 66 2.5 ESE 7 13 4 7 1024.0 1024.1 0.0
21/12:30am 8.0 5.0 1.8 65 2.6 SE 7 9 4 5 1024.1 1024.2 0.0
21/12:00am 8.1 4.7 1.7 64 2.7 ESE 9 11 5 6 1024.1 1024.2 0.0
 
Date/Time
CST
Temp
°C
App
Temp
°C
Dew
Point
Rel
Hum
%
Delta-T
°C
Wind Press
QNH
hPa
Press
MSL
hPa
Rain
since 9 am
mm
Dir
 
Spd
km/h
Gust
km/h
Spd
kts
Gust
kts
20/11:30pm 8.5 6.8 1.9 63 2.8 CALM 0 4 0 2 1024.1 1024.2 0.0
20/11:00pm 8.3 6.5 1.2 61 2.9 CALM 0 0 0 0 1024.2 1024.3 0.0
20/10:30pm 9.4 7.3 1.8 59 3.2 ESE 2 7 1 4 1024.2 1024.3 0.0
20/10:00pm 11.1 9.3 3.2 58 3.5 ESE 2 9 1 5 1024.4 1024.5 0.0
20/09:30pm 11.3 8.6 2.9 56 3.7 ESE 6 7 3 4 1024.3 1024.4 0.0
20/09:00pm 11.8 8.6 3.1 55 3.9 ESE 9 11 5 6 1024.3 1024.4 0.0
20/08:30pm 12.3 9.4 2.5 51 4.3 S 7 11 4 6 1024.3 1024.4 0.0
20/08:00pm 12.4 9.1 0.2 43 5.1 SSW 7 11 4 6 1024.2 1024.3 0.0
20/07:30pm 13.2 8.4 0.3 41 5.4 SSW 15 20 8 11 1023.9 1024.0 0.0
20/07:00pm 13.5 8.3 -0.2 39 5.8 S 17 20 9 11 1023.4 1023.4 0.0
20/06:30pm 13.9 10.2 -0.2 38 5.9 SSE 9 17 5 9 1023.0 1023.0 0.0
20/06:00pm 14.9 10.5 -2.1 31 6.9 SW 11 13 6 7 1022.3 1022.3 0.0
20/05:30pm 17.0 12.6 -2.1 27 7.9 SSW 11 13 6 7 1022.1 1022.1 0.0
20/05:00pm 18.0 14.4 -2.3 25 8.5 SW 7 15 4 8 1021.8 1021.8 0.0
20/04:30pm 17.9 15.2 -2.4 25 8.5 SW 2 9 1 5 1021.6 1021.6 0.0
20/04:00pm 17.9 13.5 -2.4 25 8.5 S 11 19 6 10 1021.6 1021.6 0.0
20/03:30pm 18.4 14.8 -2.0 25 8.6 N 7 13 4 7 1021.6 1021.6 0.0
20/03:00pm 17.8 13.9 -1.4 27 8.2 W 9 19 5 10 1021.7 1021.7 0.0
20/02:30pm 17.7 14.2 -1.5 27 8.1 NNW 7 17 4 9 1022.1 1022.1 0.0
20/02:00pm 17.8 14.5 -0.9 28 8.1 S 6 11 3 6 1022.5 1022.5 0.0
20/01:30pm 16.7 13.8 -1.4 29 7.6 E 4 11 2 6 1022.8 1022.8 0.0
20/01:00pm 16.7 13.9 -0.5 31 7.4 SSE 4 11 2 6 1023.3 1023.3 0.0
20/12:30pm 16.5 13.3 -0.2 32 7.2 ESE 6 15 3 8 1023.8 1023.8 0.0
20/12:00pm 15.7 11.9 -0.9 32 7.0 NNE 9 19 5 10 1024.5 1024.6 0.0
20/11:30am 15.3 11.2 -0.4 34 6.7 N 11 17 6 9 1024.9 1024.9 0.0
20/11:00am 14.8 11.5 -0.1 36 6.4 W 7 15 4 8 1025.1 1025.1 0.0
20/10:30am 14.4 10.6 -0.5 36 6.2 NNW 9 20 5 11 1025.3 1025.3 0.0
20/10:00am 14.1 11.1 0.7 40 5.8 NNE 6 19 3 10 1025.5 1025.5 0.0
20/09:30am 13.6 9.4 1.9 45 5.1 ENE 13 19 7 10 1025.5 1025.5 0.0
20/09:00am 11.5 8.3 3.0 56 3.7 ESE 9 13 5 7 1025.5 1025.5 0.0
20/08:30am 9.0 6.2 2.1 62 2.9 SE 6 7 3 4 1025.3 1025.3 0.0
20/08:00am 5.8 2.5 0.4 68 2.1 SE 7 9 4 5 1025.1 1025.1 0.0
20/07:30am 3.4 0.2 -0.4 76 1.4 SSE 6 7 3 4 1024.8 1024.8 0.0
20/07:00am 2.5 0.4 -0.9 78 1.2 CALM 0 0 0 0 1024.5 1024.6 0.0
20/06:30am 2.1 -1.4 -1.2 79 1.2 SSE 7 7 4 4 1024.2 1024.3 0.0
20/06:00am 2.7 0.6 -0.6 79 1.2 CALM 0 0 0 0 1023.9 1024.0 0.0
20/05:30am 1.7 -0.5 -1.9 77 1.3 CALM 0 0 0 0 1023.8 1023.8 0.0
20/05:00am 2.6 0.5 -0.7 79 1.2 CALM 0 0 0 0 1023.5 1023.5 0.0
20/04:30am 2.6 0.4 -1.2 76 1.4 CALM 0 0 0 0 1023.5 1023.5 0.0
20/04:00am 2.6 0.3 -2.3 70 1.7 CALM 0 0 0 0 1023.4 1023.4 0.0
20/03:30am 4.9 1.2 -0.1 70 1.9 SE 9 11 5 6 1023.4 1023.4 0.0
20/03:00am 5.1 1.4 0.1 70 1.9 SSE 9 15 5 8 1023.5 1023.5 0.0
20/02:30am 4.8 1.0 -0.4 69 2.0 ESE 9 11 5 6 1023.7 1023.7 0.0
20/02:00am 4.0 -0.2 -0.6 72 1.7 ESE 11 13 6 7 1023.8 1023.8 0.0
20/01:30am 2.8 0.6 -1.7 72 1.6 CALM 0 0 0 0 1024.0 1024.1 0.0
20/01:00am 5.2 1.9 0.2 70 1.9 SE 7 9 4 5 1023.9 1024.0 0.0
20/12:30am 5.8 2.5 0.4 68 2.1 SE 7 9 4 5 1023.9 1024.0 0.0
20/12:00am 5.9 2.9 0.5 68 2.1 SE 6 7 3 4 1024.1 1024.2 0.0
 
Date/Time
CST
Temp
°C
App
Temp
°C
Dew
Point
Rel
Hum
%
Delta-T
°C
Wind Press
QNH
hPa
Press
MSL
hPa
Rain
since 9 am
mm
Dir
 
Spd
km/h
Gust
km/h
Spd
kts
Gust
kts
19/11:30pm 6.0 2.9 0.3 67 2.2 SE 6 11 3 6 1024.3 1024.4 0.0
19/11:00pm 6.2 3.1 0.3 66 2.3 SE 6 9 3 5 1024.3 1024.4 0.0
19/10:30pm 5.5 2.1 -0.8 64 2.4 E 7 9 4 5 1024.3 1024.4 0.0
19/10:00pm 6.6 3.5 -0.1 62 2.6 SE 6 9 3 5 1024.3 1024.4 0.0
19/09:30pm 8.2 5.9 0.4 58 3.1 ESE 2 6 1 3 1024.3 1024.4 0.0
19/09:00pm 8.9 6.6 0.4 55 3.4 SE 2 7 1 4 1024.2 1024.3 0.0
19/08:30pm 9.4 5.8 0.3 53 3.7 S 9 13 5 7 1023.9 1024.0 0.0
19/08:00pm 10.2 5.4 0.3 50 4.1 S 15 17 8 9 1023.7 1023.7 0.0
19/07:30pm 10.8 6.4 0.2 48 4.4 S 13 20 7 11 1023.5 1023.5 0.0
19/07:00pm 11.5 6.3 0.0 45 4.8 SSW 17 20 9 11 1023.1 1023.1 0.0
19/06:30pm 12.1 6.9 -0.1 43 5.0 SSW 17 20 9 11 1022.8 1022.8 0.0
19/06:00pm 13.0 7.7 -0.3 40 5.5 SSW 17 24 9 13 1022.5 1022.5 0.0
19/05:30pm 14.2 8.6 -0.3 37 6.1 SSW 19 24 10 13 1022.4 1022.4 0.0
19/05:00pm 15.0 9.2 -0.3 35 6.5 SSW 20 26 11 14 1022.3 1022.3 0.0
19/04:30pm 15.5 9.3 -0.3 34 6.7 SW 22 30 12 16 1022.2 1022.2 0.0
19/04:00pm 15.9 10.1 0.1 34 6.8 SSW 20 30 11 16 1022.2 1022.2 0.0
19/03:30pm 15.9 10.1 -0.3 33 6.9 SW 20 30 11 16 1022.3 1022.3 0.0
19/03:00pm 15.8 11.3 -0.4 33 6.9 SSW 13 26 7 14 1022.4 1022.4 0.0
19/02:30pm 15.4 10.1 -0.4 34 6.7 S 17 26 9 14 1022.5 1022.5 0.0
19/02:00pm 16.0 11.1 -0.2 33 7.0 SSW 15 26 8 14 1022.7 1022.7 0.0
19/01:30pm 15.6 10.4 -0.2 34 6.7 S 17 24 9 13 1023.0 1023.0 0.0
19/01:00pm 14.4 10.2 -0.8 35 6.4 SE 11 19 6 10 1023.3 1023.3 0.0
19/12:30pm 14.9 9.6 -0.4 35 6.5 SSW 17 26 9 14 1023.8 1023.8 0.0
19/12:00pm 14.0 8.4 -0.1 38 5.9 S 19 26 10 14 1024.4 1024.5 0.0
19/11:30am 14.2 8.5 0.5 39 5.9 S 20 32 11 17 1024.9 1024.9 0.0
19/11:00am 13.7 8.9 0.4 40 5.7 S 15 24 8 13 1025.4 1025.4 0.0
19/10:30am 13.4 7.9 0.4 41 5.5 S 19 32 10 17 1025.6 1025.6 0.0
19/10:00am 12.4 7.3 0.8 45 4.9 S 17 28 9 15 1025.7 - 0.0
19/09:30am 12.0 7.8 1.6 49 4.5 ESE 13 20 7 11 1025.8 1025.8 0.0
19/09:00am 11.1 7.0 2.2 54 3.8 SE 13 19 7 10 1025.8 1025.8 0.0
19/08:30am 8.7 7.1 2.5 65 2.6 CALM 0 0 0 0 1025.7 1025.7 0.0
19/08:00am 6.2 4.4 1.3 71 2.0 CALM 0 0 0 0 1025.5 - 0.0
19/07:30am 3.9 2.0 0.6 79 1.3 CALM 0 0 0 0 1025.2 1025.2 0.0
19/07:00am 2.9 1.0 0.5 84 0.9 CALM 0 0 0 0 1024.8 - 0.0
19/06:30am 2.4 0.4 0.0 84 0.9 CALM 0 0 0 0 1024.5 1024.6 0.0
19/06:00am 1.8 -0.3 -1.1 81 1.0 CALM 0 0 0 0 1024.1 1024.2 0.0
19/05:30am 2.9 0.9 -0.2 80 1.2 CALM 0 0 0 0 1024.0 1024.1 0.0
19/05:00am 3.9 0.8 0.1 76 1.5 SE 6 7 3 4 1023.8 - 0.0
19/04:30am 3.0 -0.4 -0.3 79 1.2 SE 7 11 4 6 1023.7 1023.7 0.0
19/04:00am 3.1 -0.7 -0.5 77 1.3 ESE 9 11 5 6 1023.6 - 0.0
19/03:30am 3.8 0.5 -0.2 75 1.5 ESE 7 9 4 5 1023.5 1023.5 0.0
19/03:00am 4.4 1.1 0.0 73 1.7 ESE 7 11 4 6 1023.5 1023.5 0.0
19/02:30am 4.9 3.0 0.3 72 1.8 CALM 0 0 0 0 1023.8 1023.8 0.0
19/02:00am 4.9 2.9 0.1 71 1.9 CALM 0 0 0 0 1024.0 - 0.0
19/01:30am 5.6 3.8 1.5 75 1.6 CALM 0 6 0 3 1024.1 1024.2 0.0
19/01:00am 5.7 2.6 1.1 72 1.8 ESE 7 11 4 6 1024.1 - 0.0
19/12:30am 6.9 3.6 2.2 72 1.9 SSW 9 11 5 6 1024.1 1024.2 0.0
19/12:00am 7.8 5.0 2.9 71 2.1 SSW 7 9 4 5 1024.2 1024.3 0.0

Other Formats:

Comma delimited format used in spreadsheet applications
http://www.bom.gov.au/fwo/IDS60801/IDS60801.94674.axf

JavaScript Object Notation format (JSON) in row-major order
http://www.bom.gov.au/fwo/IDS60801/IDS60801.94674.json